createdAt,value
2019-05-03T00:03:07.417Z,90.40
2019-05-03T00:07:12.776Z,90.20
2019-05-03T00:11:18.037Z,90.30
2019-05-03T00:15:38.231Z,90.20
2019-05-03T00:19:42.895Z,90.10
2019-05-03T00:23:47.481Z,90.40
2019-05-03T00:27:52.773Z,90.50
2019-05-03T00:31:57.557Z,90.50
2019-05-03T00:36:12.752Z,90.20
2019-05-03T00:40:28.600Z,90.10
2019-05-03T00:44:34.987Z,88.60
2019-05-03T00:48:39.657Z,85.40
2019-05-03T00:52:44.497Z,85.20
2019-05-03T00:56:49.136Z,83.20
2019-05-03T01:00:56.933Z,80.90
2019-05-03T01:05:02.832Z,80.00
2019-05-03T01:09:14.433Z,80.40
2019-05-03T01:13:22.024Z,80.30
2019-05-03T01:17:28.214Z,80.50
2019-05-03T01:21:32.935Z,80.00
2019-05-03T01:25:37.593Z,79.70
2019-05-03T01:29:43.319Z,80.40
2019-05-03T01:33:47.914Z,77.40
2019-05-03T01:37:56.175Z,75.30
2019-05-03T01:42:02.699Z,74.40
2019-05-03T01:46:08.742Z,73.70
2019-05-03T01:50:32.478Z,73.30
2019-05-03T01:54:37.186Z,73.40
2019-05-03T01:58:41.802Z,73.00
2019-05-03T02:02:57.386Z,74.20
2019-05-03T02:07:02.337Z,73.70
2019-05-03T02:11:07.094Z,74.60
2019-05-03T02:15:12.044Z,75.00
2019-05-03T02:19:16.835Z,74.70
2019-05-03T02:23:22.422Z,75.00
2019-05-03T02:27:27.552Z,74.30
2019-05-03T02:31:32.953Z,76.00
2019-05-03T02:35:38.711Z,74.70
2019-05-03T02:39:43.313Z,75.20
2019-05-03T02:43:50.344Z,76.40
2019-05-03T02:48:08.020Z,76.70
2019-05-03T02:52:30.689Z,77.20
2019-05-03T02:56:35.974Z,77.80
2019-05-03T03:00:56.096Z,79.70
2019-05-03T03:05:01.237Z,79.90
2019-05-03T03:09:06.936Z,80.00
2019-05-03T03:13:16.209Z,81.00
2019-05-03T03:17:21.574Z,81.30
2019-05-03T03:21:29.902Z,81.70
2019-05-03T03:25:39.298Z,80.30
2019-05-03T03:29:47.364Z,80.00
2019-05-03T03:33:52.719Z,80.90
2019-05-03T03:37:58.345Z,82.50
2019-05-03T03:42:05.325Z,83.20
2019-05-03T03:46:11.627Z,82.50
2019-05-03T03:50:16.267Z,83.40
2019-05-03T03:54:22.267Z,84.30
2019-05-03T03:58:27.378Z,84.70
2019-05-03T04:02:32.115Z,83.90
2019-05-03T04:06:46.400Z,84.90
2019-05-03T04:10:50.323Z,84.90
2019-05-03T04:15:01.569Z,84.70
2019-05-03T04:19:17.464Z,85.20
2019-05-03T04:23:21.676Z,85.80
2019-05-03T04:27:27.751Z,86.10
2019-05-03T04:31:33.271Z,86.00
2019-05-03T04:35:37.848Z,86.20
2019-05-03T04:39:45.375Z,86.60
2019-05-03T04:43:49.150Z,87.00
2019-05-03T04:47:56.125Z,87.30
2019-05-03T04:52:00.169Z,87.10
2019-05-03T04:56:05.738Z,86.90
2019-05-03T05:00:11.845Z,87.00
2019-05-03T05:04:16.930Z,87.70
2019-05-03T05:08:21.915Z,87.10
2019-05-03T05:12:26.511Z,87.80
2019-05-03T05:16:31.148Z,86.50
2019-05-03T05:20:41.595Z,87.40
2019-05-03T05:24:46.215Z,86.50
2019-05-03T05:28:55.292Z,87.90
2019-05-03T05:32:59.951Z,88.00
2019-05-03T05:37:05.376Z,87.30
2019-05-03T05:41:10.587Z,87.60
2019-05-03T05:45:15.389Z,87.80
2019-05-03T05:49:39.303Z,87.60
2019-05-03T05:53:44.724Z,86.00
2019-05-03T05:58:05.063Z,86.60
2019-05-03T06:02:07.832Z,86.30
2019-05-03T06:06:16.515Z,85.30
2019-05-03T06:10:36.361Z,84.80
2019-05-03T06:14:45.351Z,84.90
2019-05-03T06:19:27.327Z,83.80
2019-05-03T06:23:37.125Z,83.20
2019-05-03T06:27:41.765Z,82.90
2019-05-03T06:31:56.791Z,82.90
2019-05-03T06:36:01.385Z,82.00
2019-05-03T06:40:06.535Z,81.10
2019-05-03T06:44:11.229Z,80.70
2019-05-03T06:48:17.730Z,76.50
2019-05-03T06:52:25.476Z,74.10
2019-05-03T06:56:29.478Z,67.40
2019-05-03T07:00:52.130Z,66.80
2019-05-03T07:04:58.599Z,67.00
2019-05-03T07:09:21.236Z,66.20
2019-05-03T07:13:25.919Z,68.00
2019-05-03T07:17:30.694Z,70.10
2019-05-03T07:21:35.703Z,71.00
2019-05-03T07:25:40.422Z,72.00
2019-05-03T07:29:45.150Z,72.50
2019-05-03T07:33:49.911Z,71.80
2019-05-03T07:37:55.325Z,71.80
2019-05-03T07:42:00.457Z,70.00
2019-05-03T07:46:05.570Z,62.80
2019-05-03T07:50:10.601Z,59.30
2019-05-03T07:54:15.782Z,55.40
2019-05-03T07:58:22.019Z,56.50
2019-05-03T08:02:27.626Z,57.50
2019-05-03T08:06:34.610Z,56.20
2019-05-03T08:10:39.930Z,54.40
2019-05-03T08:14:44.737Z,52.20
2019-05-03T08:18:49.364Z,48.60
2019-05-03T08:22:54.727Z,56.10
2019-05-03T08:26:59.647Z,57.10
2019-05-03T08:31:35.550Z,51.20
2019-05-03T08:35:42.487Z,49.40
2019-05-03T08:39:47.188Z,50.60
2019-05-03T08:43:51.855Z,54.90
2019-05-03T08:47:56.474Z,55.70
2019-05-03T08:52:01.188Z,52.00
2019-05-03T08:56:05.947Z,50.90
2019-05-03T09:00:15.416Z,49.80
2019-05-03T09:04:33.078Z,52.00
2019-05-03T09:08:26.443Z,53.10
2019-05-03T09:12:49.238Z,49.70
2019-05-03T09:16:55.550Z,48.60
2019-05-03T09:21:00.323Z,52.80
2019-05-03T09:25:05.240Z,55.90
2019-05-03T09:29:09.852Z,55.40
2019-05-03T09:33:15.301Z,52.20
2019-05-03T09:37:21.219Z,52.70
2019-05-03T09:41:26.041Z,53.40
2019-05-03T09:45:30.690Z,56.50
2019-05-03T09:49:35.372Z,55.80
2019-05-03T09:53:48.915Z,52.20
2019-05-03T09:57:55.426Z,47.00
2019-05-03T10:02:01.425Z,49.70
2019-05-03T10:06:06.034Z,51.40
2019-05-03T10:10:11.036Z,51.80
2019-05-03T10:14:15.823Z,48.90
2019-05-03T10:18:20.479Z,48.50
2019-05-03T10:22:27.540Z,50.10
2019-05-03T10:26:32.282Z,50.20
2019-05-03T10:30:37.054Z,41.50
2019-05-03T10:34:54.663Z,41.80
2019-05-03T10:38:59.278Z,45.10
2019-05-03T10:43:04.861Z,44.80
2019-05-03T10:47:09.558Z,43.60
2019-05-03T10:51:15.667Z,45.80
2019-05-03T10:55:20.630Z,45.00
2019-05-03T10:59:25.281Z,44.80
2019-05-03T11:03:30.081Z,46.20
2019-05-03T11:07:34.769Z,48.70
2019-05-03T11:11:39.403Z,48.50
2019-05-03T11:15:44.405Z,46.30
2019-05-03T11:19:49.329Z,46.50
2019-05-03T11:23:54.500Z,50.00
2019-05-03T11:28:01.141Z,50.30
2019-05-03T11:32:19.388Z,46.10
2019-05-03T11:36:41.660Z,44.40
2019-05-03T11:40:46.589Z,42.70
2019-05-03T11:44:51.234Z,42.90
2019-05-03T11:48:56.178Z,45.50
2019-05-03T11:53:01.006Z,47.80
2019-05-03T11:57:10.602Z,49.40
2019-05-03T12:01:25.399Z,48.90
2019-05-03T12:05:30.116Z,50.70
2019-05-03T12:09:34.900Z,49.80
2019-05-03T12:13:39.861Z,49.70
2019-05-03T12:17:54.287Z,48.50
2019-05-03T12:21:54.060Z,47.60
2019-05-03T12:25:59.731Z,45.70
2019-05-03T12:30:05.364Z,45.60
2019-05-03T12:34:09.957Z,43.20
2019-05-03T12:38:16.494Z,39.30
2019-05-03T12:42:21.360Z,42.80
2019-05-03T12:46:30.335Z,44.50
2019-05-03T12:50:35.032Z,45.10
2019-05-03T12:54:39.964Z,46.60
2019-05-03T12:59:12.575Z,46.70
2019-05-03T13:03:24.545Z,47.00
2019-05-03T13:07:34.815Z,47.20
2019-05-03T13:11:51.739Z,48.30
2019-05-03T13:15:47.871Z,48.20
2019-05-03T13:19:54.604Z,49.40
2019-05-03T13:23:58.856Z,52.60
2019-05-03T13:28:05.375Z,53.30
2019-05-03T13:32:10.839Z,52.60
2019-05-03T13:36:15.450Z,52.50
2019-05-03T13:40:20.079Z,52.70
2019-05-03T13:44:25.092Z,54.30
2019-05-03T13:48:41.643Z,54.90
2019-05-03T13:52:36.059Z,55.30
2019-05-03T13:56:40.692Z,54.10
2019-05-03T14:00:45.522Z,53.30
2019-05-03T14:04:55.489Z,53.40
2019-05-03T14:08:59.696Z,51.10
2019-05-03T14:13:05.579Z,52.20
2019-05-03T14:17:10.481Z,50.60
2019-05-03T14:21:30.527Z,49.70
2019-05-03T14:25:35.528Z,49.50
2019-05-03T14:29:40.231Z,48.80
2019-05-03T14:33:44.954Z,51.00
2019-05-03T14:37:49.626Z,52.20
2019-05-03T14:41:55.575Z,54.30
2019-05-03T14:46:00.372Z,60.60
2019-05-03T14:50:05.685Z,63.00
2019-05-03T14:54:10.755Z,64.70
2019-05-03T14:58:40.644Z,63.70
2019-05-03T15:02:58.343Z,64.70
2019-05-03T15:07:05.871Z,63.80
2019-05-03T15:11:10.131Z,61.00
2019-05-03T15:15:15.422Z,60.80
2019-05-03T15:19:20.048Z,60.10
2019-05-03T15:23:25.532Z,58.40
2019-05-03T15:27:30.411Z,56.90
2019-05-03T15:31:35.445Z,56.00
2019-05-03T15:35:40.287Z,56.60
2019-05-03T15:39:45.250Z,57.60
2019-05-03T15:43:58.687Z,58.00
2019-05-03T15:48:08.775Z,59.30
2019-05-03T15:52:15.159Z,60.40
2019-05-03T15:56:19.784Z,60.00
2019-05-03T16:00:24.574Z,60.00
2019-05-03T16:04:29.306Z,60.00
2019-05-03T16:08:34.085Z,60.80
2019-05-03T16:12:38.778Z,61.10
2019-05-03T16:16:45.152Z,61.80
2019-05-03T16:20:50.903Z,61.60
2019-05-03T16:24:55.814Z,62.30
2019-05-03T16:29:12.453Z,62.50
2019-05-03T16:33:26.848Z,62.50
2019-05-03T16:37:25.502Z,60.00
2019-05-03T16:41:30.575Z,61.40
2019-05-03T16:45:36.218Z,61.20
2019-05-03T16:49:41.171Z,60.90
2019-05-03T16:53:46.243Z,61.70
2019-05-03T16:57:51.038Z,60.50
2019-05-03T17:01:55.708Z,59.90
2019-05-03T17:06:12.504Z,59.60
2019-05-03T17:10:39.055Z,58.80
2019-05-03T17:14:43.888Z,60.60
2019-05-03T17:18:49.275Z,60.70
2019-05-03T17:22:55.533Z,61.30
2019-05-03T17:27:00.615Z,62.00
2019-05-03T17:31:11.692Z,61.40
2019-05-03T17:35:16.546Z,61.10
2019-05-03T17:39:42.627Z,62.00
2019-05-03T17:43:50.947Z,60.60
2019-05-03T17:47:55.942Z,61.50
2019-05-03T17:52:19.967Z,61.40
2019-05-03T17:56:29.947Z,61.60
2019-05-03T18:00:56.083Z,62.30
2019-05-03T18:05:20.528Z,61.40
2019-05-03T18:09:29.713Z,63.50
2019-05-03T18:13:35.380Z,62.80
2019-05-03T18:17:40.229Z,63.70
2019-05-03T18:21:44.900Z,64.10
2019-05-03T18:25:49.550Z,65.20
2019-05-03T18:29:55.415Z,65.60
2019-05-03T18:34:00.340Z,66.20
2019-05-03T18:38:06.046Z,65.50
2019-05-03T18:42:13.975Z,66.40
2019-05-03T18:46:25.922Z,65.80
2019-05-03T18:50:30.788Z,66.00
2019-05-03T18:54:36.151Z,66.40
2019-05-03T18:58:41.195Z,67.60
2019-05-03T19:02:45.918Z,64.70
2019-05-03T19:07:03.432Z,63.40
2019-05-03T19:11:07.081Z,64.10
2019-05-03T19:15:21.934Z,62.30
2019-05-03T19:19:31.765Z,63.50
2019-05-03T19:23:36.776Z,62.70
2019-05-03T19:27:42.592Z,63.60
2019-05-03T19:31:47.263Z,63.30
2019-05-03T19:36:00.168Z,63.20
2019-05-03T19:40:06.534Z,63.80
2019-05-03T19:44:11.673Z,63.00
2019-05-03T19:48:16.950Z,63.50
2019-05-03T19:52:25.483Z,63.40
2019-05-03T19:56:31.224Z,63.40
2019-05-03T20:00:54.876Z,65.30
2019-05-03T20:05:29.676Z,65.90
2019-05-03T20:09:49.094Z,67.30
2019-05-03T20:13:55.195Z,68.40
2019-05-03T20:18:01.279Z,66.20
2019-05-03T20:22:06.202Z,67.40
2019-05-03T20:26:10.906Z,65.30
2019-05-03T20:30:15.910Z,63.80
2019-05-03T20:34:33.311Z,64.60
2019-05-03T20:38:38.031Z,66.00
2019-05-03T20:43:07.747Z,65.50
2019-05-03T20:47:34.966Z,66.70
2019-05-03T20:51:40.119Z,66.00
2019-05-03T20:55:45.174Z,65.30
2019-05-03T20:59:51.976Z,64.20
2019-05-03T21:03:56.488Z,66.00
2019-05-03T21:08:05.557Z,66.00
2019-05-03T21:12:11.667Z,66.00
2019-05-03T21:16:41.591Z,68.10
2019-05-03T21:20:50.820Z,67.30
2019-05-03T21:25:21.592Z,67.60
2019-05-03T21:29:26.365Z,67.50
2019-05-03T21:33:32.565Z,66.80
2019-05-03T21:37:37.242Z,67.40
2019-05-03T21:41:42.115Z,69.30
2019-05-03T21:45:54.472Z,68.60
2019-05-03T21:50:00.296Z,68.90
2019-05-03T21:54:08.210Z,68.90
2019-05-03T21:58:16.104Z,69.20
2019-05-03T22:02:20.881Z,70.00
2019-05-03T22:06:26.597Z,71.80
2019-05-03T22:10:31.401Z,70.80
2019-05-03T22:14:45.446Z,70.00
2019-05-03T22:18:51.803Z,72.30
2019-05-03T22:23:09.291Z,71.90
2019-05-03T22:27:17.515Z,72.40
2019-05-03T22:31:24.187Z,72.50
2019-05-03T22:35:30.779Z,72.50
2019-05-03T22:39:35.434Z,73.40
2019-05-03T22:43:40.067Z,74.40
2019-05-03T22:47:44.899Z,73.80
2019-05-03T22:51:50.904Z,73.80
2019-05-03T22:55:55.987Z,73.90
2019-05-03T23:00:06.002Z,76.10
2019-05-03T23:04:11.407Z,75.30
2019-05-03T23:08:16.043Z,76.30
2019-05-03T23:12:23.515Z,77.60
2019-05-03T23:16:28.311Z,77.20
2019-05-03T23:20:41.293Z,77.60
2019-05-03T23:24:45.975Z,79.80
2019-05-03T23:28:52.477Z,78.80
2019-05-03T23:32:57.126Z,80.50
2019-05-03T23:37:02.272Z,80.90
2019-05-03T23:41:08.047Z,80.80
2019-05-03T23:45:14.915Z,80.60
2019-05-03T23:49:19.490Z,80.50
2019-05-03T23:53:24.187Z,80.20
2019-05-03T23:57:29.322Z,79.30
